createdAt,value
2017-11-06T00:00:35.312Z,0
2017-11-06T00:01:47.605Z,0
2017-11-06T00:03:00.202Z,0
2017-11-06T00:04:12.795Z,0
2017-11-06T00:05:24.784Z,0
2017-11-06T00:06:36.738Z,0
2017-11-06T00:07:49.332Z,0
2017-11-06T00:09:01.601Z,0
2017-11-06T00:10:13.595Z,0
2017-11-06T00:11:26.218Z,0
2017-11-06T00:12:38.836Z,0
2017-11-06T00:13:50.812Z,0
2017-11-06T00:15:03.432Z,0
2017-11-06T00:16:16.045Z,0
2017-11-06T00:17:28.664Z,0
2017-11-06T00:18:41.244Z,0
2017-11-06T00:19:53.841Z,0
2017-11-06T00:21:05.810Z,0
2017-11-06T00:22:18.444Z,0
2017-11-06T00:23:30.402Z,0
2017-11-06T00:24:42.365Z,0
2017-11-06T00:25:54.668Z,0
2017-11-06T00:27:07.265Z,0
2017-11-06T00:28:19.884Z,0
2017-11-06T00:29:32.178Z,0
2017-11-06T00:30:44.789Z,0
2017-11-06T00:31:57.418Z,0
2017-11-06T00:33:10.031Z,0
2017-11-06T00:34:22.880Z,0
2017-11-06T00:35:35.182Z,0
2017-11-06T00:36:47.807Z,0
2017-11-06T00:38:00.097Z,0
2017-11-06T00:39:12.718Z,0
2017-11-06T00:40:25.258Z,0
2017-11-06T00:41:37.908Z,0
2017-11-06T00:42:50.520Z,0
2017-11-06T00:44:02.780Z,0
2017-11-06T00:45:14.724Z,0
2017-11-06T00:46:27.317Z,0
2017-11-06T00:47:39.606Z,0
2017-11-06T00:48:52.210Z,0
2017-11-06T00:50:03.857Z,0
2017-11-06T00:51:16.153Z,0
2017-11-06T00:52:28.772Z,0
2017-11-06T00:53:41.409Z,0
2017-11-06T00:54:54.013Z,0
2017-11-06T00:56:06.621Z,0
2017-11-06T00:57:19.252Z,0
2017-11-06T00:58:31.867Z,0
2017-11-06T00:59:44.137Z,0
2017-11-06T01:00:56.417Z,0
2017-11-06T01:02:08.708Z,0
2017-11-06T01:03:21.325Z,0
2017-11-06T01:04:33.618Z,0
2017-11-06T01:05:46.249Z,0
2017-11-06T01:06:58.795Z,0
2017-11-06T01:08:11.055Z,0
2017-11-06T01:09:23.367Z,0
2017-11-06T01:10:35.645Z,0
2017-11-06T01:11:48.240Z,0
2017-11-06T01:13:00.874Z,0
2017-11-06T01:14:13.168Z,0
2017-11-06T01:15:25.141Z,0
2017-11-06T01:16:37.760Z,0
2017-11-06T01:17:50.396Z,0
2017-11-06T01:19:03.046Z,0
2017-11-06T01:20:15.674Z,0
2017-11-06T01:21:28.280Z,0
2017-11-06T01:22:40.553Z,0
2017-11-06T01:23:53.176Z,0
2017-11-06T01:25:05.450Z,0
2017-11-06T01:26:17.089Z,0
2017-11-06T01:27:29.346Z,0
2017-11-06T01:28:41.303Z,0
2017-11-06T01:29:53.909Z,0
2017-11-06T01:31:06.546Z,0
2017-11-06T01:32:18.505Z,0
2017-11-06T01:33:30.772Z,0
2017-11-06T01:34:43.370Z,0
2017-11-06T01:35:55.963Z,0
2017-11-06T01:37:07.914Z,0
2017-11-06T01:38:19.859Z,0
2017-11-06T01:39:32.198Z,0
2017-11-06T01:40:44.824Z,0
2017-11-06T01:41:56.768Z,0
2017-11-06T01:43:09.065Z,0
2017-11-06T01:44:21.689Z,0
2017-11-06T01:45:34.270Z,0
2017-11-06T01:46:46.272Z,0
2017-11-06T01:47:58.245Z,0
2017-11-06T01:49:10.564Z,0
2017-11-06T01:50:22.855Z,0
2017-11-06T01:51:35.156Z,0
2017-11-06T01:52:47.426Z,0
2017-11-06T01:53:59.722Z,0
2017-11-06T01:55:11.660Z,0
2017-11-06T01:56:24.274Z,0
2017-11-06T01:57:36.592Z,0
2017-11-06T01:58:49.197Z,0
2017-11-06T02:00:01.496Z,0
2017-11-06T02:01:14.391Z,0
2017-11-06T02:02:26.034Z,0
2017-11-06T02:03:38.640Z,0
2017-11-06T02:04:50.929Z,0
2017-11-06T02:06:03.242Z,0
2017-11-06T02:07:15.516Z,0
2017-11-06T02:08:27.800Z,0
2017-11-06T02:09:40.408Z,0
2017-11-06T02:10:52.978Z,0
2017-11-06T02:12:04.932Z,0
2017-11-06T02:13:16.605Z,0
2017-11-06T02:14:28.574Z,0
2017-11-06T02:15:41.197Z,0
2017-11-06T02:16:53.806Z,0
2017-11-06T02:18:06.438Z,0
2017-11-06T02:19:18.703Z,0
2017-11-06T02:20:31.003Z,0
2017-11-06T02:21:43.624Z,0
2017-11-06T02:22:56.218Z,0
2017-11-06T02:24:08.841Z,0
2017-11-06T02:25:21.433Z,0
2017-11-06T02:26:34.046Z,0
2017-11-06T02:27:46.654Z,0
2017-11-06T02:28:59.286Z,0
2017-11-06T02:30:11.570Z,0
2017-11-06T02:31:23.861Z,0
2017-11-06T02:32:36.486Z,0
2017-11-06T02:33:48.481Z,0
2017-11-06T02:35:01.125Z,0
2017-11-06T02:36:13.718Z,0
2017-11-06T02:37:26.319Z,0
2017-11-06T02:38:38.615Z,0
2017-11-06T02:39:50.907Z,0
2017-11-06T02:41:03.530Z,0
2017-11-06T02:42:16.181Z,0
2017-11-06T02:43:28.788Z,0
2017-11-06T02:44:41.417Z,0
2017-11-06T02:45:53.387Z,0
2017-11-06T02:47:05.997Z,0
2017-11-06T02:48:18.269Z,0
2017-11-06T02:49:30.890Z,0
2017-11-06T02:50:43.510Z,0
2017-11-06T02:51:55.788Z,0
2017-11-06T02:53:07.761Z,0
2017-11-06T02:54:19.736Z,0
2017-11-06T02:55:32.330Z,0
2017-11-06T02:56:44.627Z,0
2017-11-06T02:57:57.219Z,0
2017-11-06T02:59:09.840Z,0
2017-11-06T03:00:22.150Z,0
2017-11-06T03:01:34.755Z,0
2017-11-06T03:02:47.349Z,0
2017-11-06T03:03:59.969Z,0
2017-11-06T03:05:12.259Z,0
2017-11-06T03:06:24.238Z,0
2017-11-06T03:07:36.848Z,0
2017-11-06T03:08:49.124Z,0
2017-11-06T03:10:01.443Z,0
2017-11-06T03:11:14.067Z,0
2017-11-06T03:12:26.340Z,0
2017-11-06T03:13:38.305Z,0
2017-11-06T03:14:50.930Z,0
2017-11-06T03:16:03.518Z,0
2017-11-06T03:17:16.142Z,0
2017-11-06T03:18:28.420Z,0
2017-11-06T03:19:41.014Z,0
2017-11-06T03:20:53.633Z,0
2017-11-06T03:22:06.255Z,0
2017-11-06T03:23:18.228Z,0
2017-11-06T03:24:30.862Z,0
2017-11-06T03:25:43.458Z,0
2017-11-06T03:26:55.738Z,0
2017-11-06T03:28:08.031Z,0
2017-11-06T03:29:20.620Z,0
2017-11-06T03:30:33.226Z,0
2017-11-06T03:31:44.885Z,0
2017-11-06T03:32:57.185Z,0
2017-11-06T03:34:09.144Z,0
2017-11-06T03:35:21.450Z,0
2017-11-06T03:36:34.102Z,0
2017-11-06T03:37:46.698Z,0
2017-11-06T03:38:59.285Z,0
2017-11-06T03:40:11.898Z,0
2017-11-06T03:41:24.491Z,0
2017-11-06T03:42:37.075Z,0
2017-11-06T03:43:49.367Z,0
2017-11-06T03:45:01.979Z,0
2017-11-06T03:46:14.594Z,0
2017-11-06T03:47:27.211Z,0
2017-11-06T03:48:39.182Z,0
2017-11-06T03:49:52.062Z,0
2017-11-06T03:51:04.681Z,0
2017-11-06T03:52:16.663Z,0
2017-11-06T03:53:28.932Z,0
2017-11-06T03:54:41.243Z,0
2017-11-06T03:55:53.865Z,0
2017-11-06T03:57:06.148Z,0
2017-11-06T03:58:18.751Z,0
2017-11-06T03:59:31.374Z,0
2017-11-06T04:00:44.270Z,0
2017-11-06T04:01:56.860Z,0
2017-11-06T04:03:09.478Z,0
2017-11-06T04:04:22.098Z,0
2017-11-06T04:05:34.731Z,0
2017-11-06T04:06:47.310Z,0
2017-11-06T04:07:59.591Z,0
2017-11-06T04:09:11.562Z,0
2017-11-06T04:10:23.879Z,0
2017-11-06T04:11:36.485Z,0
2017-11-06T04:12:49.074Z,0
2017-11-06T04:14:01.036Z,0
2017-11-06T04:15:13.640Z,0
2017-11-06T04:16:25.311Z,0
2017-11-06T04:17:37.604Z,0
2017-11-06T04:18:50.183Z,0
2017-11-06T04:20:02.786Z,0
2017-11-06T04:21:15.394Z,0
2017-11-06T04:22:27.364Z,0
2017-11-06T04:23:39.962Z,0
2017-11-06T04:24:52.573Z,0
2017-11-06T04:26:05.201Z,0
2017-11-06T04:27:17.510Z,0
2017-11-06T04:28:30.105Z,0
2017-11-06T04:29:42.677Z,0
2017-11-06T04:30:55.281Z,0
2017-11-06T04:32:07.547Z,0
2017-11-06T04:33:20.224Z,0
2017-11-06T04:34:32.496Z,0
2017-11-06T04:35:45.118Z,0
2017-11-06T04:36:57.412Z,0
2017-11-06T04:38:09.408Z,0
2017-11-06T04:39:22.006Z,0
2017-11-06T04:40:34.299Z,0
2017-11-06T04:41:46.898Z,0
2017-11-06T04:42:59.514Z,0
2017-11-06T04:44:11.785Z,0
2017-11-06T04:45:24.406Z,0
2017-11-06T04:46:36.702Z,0
2017-11-06T04:47:49.312Z,0
2017-11-06T04:49:01.918Z,0
2017-11-06T04:50:14.214Z,0
2017-11-06T04:51:26.184Z,0
2017-11-06T04:52:38.154Z,0
2017-11-06T04:53:50.744Z,0
2017-11-06T04:55:03.069Z,0
2017-11-06T04:56:15.655Z,0
2017-11-06T04:57:27.954Z,0
2017-11-06T04:58:40.250Z,0
2017-11-06T04:59:52.887Z,0
2017-11-06T05:01:04.822Z,0
2017-11-06T05:02:17.434Z,0
2017-11-06T05:03:30.018Z,0
2017-11-06T05:04:42.287Z,0
2017-11-06T05:05:55.157Z,0
2017-11-06T05:07:07.826Z,0
2017-11-06T05:08:20.120Z,0
2017-11-06T05:09:32.744Z,0
2017-11-06T05:10:45.031Z,0
2017-11-06T05:11:57.300Z,0
2017-11-06T05:13:09.905Z,0
2017-11-06T05:14:22.198Z,0
2017-11-06T05:15:34.821Z,0
2017-11-06T05:16:47.468Z,0
2017-11-06T05:17:59.738Z,0
2017-11-06T05:19:12.006Z,0
2017-11-06T05:20:24.003Z,0
2017-11-06T05:21:36.300Z,0
2017-11-06T05:22:48.946Z,0
2017-11-06T05:24:01.218Z,0
2017-11-06T05:25:13.826Z,0
2017-11-06T05:26:26.429Z,0
2017-11-06T05:27:39.282Z,0
2017-11-06T05:28:51.916Z,0
2017-11-06T05:30:04.542Z,0
2017-11-06T05:31:16.833Z,0
2017-11-06T05:32:29.463Z,0
2017-11-06T05:33:41.759Z,0
2017-11-06T05:34:54.403Z,0
2017-11-06T05:36:07.015Z,0
2017-11-06T05:37:19.307Z,0
2017-11-06T05:38:31.832Z,0
2017-11-06T05:39:44.459Z,4
2017-11-06T05:40:56.771Z,4
2017-11-06T05:42:09.378Z,4
2017-11-06T05:43:21.660Z,0
2017-11-06T05:44:33.609Z,4
2017-11-06T05:45:45.890Z,8
2017-11-06T05:46:58.226Z,4
2017-11-06T05:48:10.207Z,8
2017-11-06T05:49:22.495Z,8
2017-11-06T05:50:35.061Z,8
2017-11-06T05:51:47.362Z,12
2017-11-06T05:52:59.633Z,16
2017-11-06T05:54:12.246Z,20
2017-11-06T05:55:24.528Z,24
2017-11-06T05:56:37.167Z,28
2017-11-06T05:57:49.823Z,32
2017-11-06T05:59:02.104Z,40
2017-11-06T06:00:14.735Z,48
2017-11-06T06:01:27.356Z,60
2017-11-06T06:02:39.666Z,72
2017-11-06T06:03:52.292Z,88
2017-11-06T06:05:04.574Z,96
2017-11-06T06:06:16.843Z,116
2017-11-06T06:07:28.806Z,128
2017-11-06T06:08:41.397Z,148
2017-11-06T06:09:54.052Z,168
2017-11-06T06:11:06.285Z,188
2017-11-06T06:12:18.584Z,212
2017-11-06T06:13:30.867Z,232
2017-11-06T06:14:43.478Z,256
2017-11-06T06:15:56.080Z,276
2017-11-06T06:17:08.692Z,300
2017-11-06T06:18:20.987Z,324
2017-11-06T06:19:33.287Z,356
2017-11-06T06:20:45.559Z,384
2017-11-06T06:21:57.853Z,412
2017-11-06T06:23:10.465Z,440
2017-11-06T06:24:22.136Z,464
2017-11-06T06:25:34.770Z,492
2017-11-06T06:26:47.382Z,520
2017-11-06T06:28:00.011Z,556
2017-11-06T06:29:12.619Z,604
2017-11-06T06:30:24.919Z,640
2017-11-06T06:31:37.560Z,684
2017-11-06T06:32:49.815Z,720
2017-11-06T06:34:02.085Z,760
2017-11-06T06:35:14.707Z,800
2017-11-06T06:36:26.353Z,852
2017-11-06T06:37:38.646Z,900
2017-11-06T06:38:50.609Z,956
2017-11-06T06:40:03.214Z,1016
2017-11-06T06:41:15.837Z,1084
2017-11-06T06:42:27.779Z,1172
2017-11-06T06:43:40.633Z,1264
2017-11-06T06:44:52.943Z,1396
2017-11-06T06:46:05.542Z,1492
2017-11-06T06:47:17.837Z,1608
2017-11-06T06:48:30.439Z,1680
2017-11-06T06:49:42.706Z,1760
2017-11-06T06:50:54.673Z,1800
2017-11-06T06:52:06.637Z,1820
2017-11-06T06:53:19.244Z,1844
2017-11-06T06:54:31.895Z,1864
2017-11-06T06:55:44.185Z,1876
2017-11-06T06:56:56.780Z,1860
2017-11-06T06:58:09.073Z,1860
2017-11-06T06:59:21.673Z,1820
2017-11-06T07:00:33.943Z,1768
2017-11-06T07:01:45.914Z,1708
2017-11-06T07:02:58.525Z,1656
2017-11-06T07:04:11.130Z,1628
2017-11-06T07:05:23.978Z,1612
2017-11-06T07:06:36.284Z,1628
2017-11-06T07:07:48.534Z,1652
2017-11-06T07:09:00.826Z,1700
2017-11-06T07:10:13.430Z,1772
2017-11-06T07:11:26.054Z,1876
2017-11-06T07:12:38.655Z,1968
2017-11-06T07:13:50.967Z,2020
2017-11-06T07:15:03.237Z,2120
2017-11-06T07:16:15.883Z,2224
2017-11-06T07:17:28.181Z,2328
2017-11-06T07:18:40.773Z,2448
2017-11-06T07:19:53.036Z,2560
2017-11-06T07:21:05.618Z,2648
2017-11-06T07:22:17.903Z,2736
2017-11-06T07:23:29.551Z,2816
2017-11-06T07:24:42.176Z,2864
2017-11-06T07:25:54.751Z,2940
2017-11-06T07:27:07.294Z,3016
2017-11-06T07:28:19.910Z,3112
2017-11-06T07:29:32.541Z,3244
2017-11-06T07:30:45.162Z,3408
2017-11-06T07:31:57.443Z,3520
2017-11-06T07:33:09.767Z,3580
2017-11-06T07:34:22.424Z,3736
2017-11-06T07:35:34.713Z,3928
2017-11-06T07:36:47.336Z,4160
2017-11-06T07:37:59.622Z,4400
2017-11-06T07:39:11.255Z,4608
2017-11-06T07:40:23.865Z,4744
2017-11-06T07:41:36.192Z,4952
2017-11-06T07:42:48.794Z,4960
2017-11-06T07:44:01.081Z,5068
2017-11-06T07:45:13.737Z,5324
2017-11-06T07:46:26.002Z,5708
2017-11-06T07:47:38.598Z,6004
2017-11-06T07:48:51.214Z,6212
2017-11-06T07:50:03.514Z,6628
2017-11-06T07:51:15.481Z,6932
2017-11-06T07:52:28.086Z,7212
2017-11-06T07:53:39.726Z,7332
2017-11-06T07:54:52.344Z,7340
2017-11-06T07:56:04.663Z,7484
2017-11-06T07:57:17.309Z,7812
2017-11-06T07:58:29.586Z,7952
2017-11-06T07:59:41.567Z,7536
2017-11-06T08:00:54.150Z,7324
2017-11-06T08:02:06.766Z,6812
2017-11-06T08:03:18.758Z,6532
2017-11-06T08:04:31.062Z,6832
2017-11-06T08:05:43.008Z,6832
2017-11-06T08:06:55.304Z,7216
2017-11-06T08:08:07.941Z,7500
2017-11-06T08:09:20.270Z,7328
2017-11-06T08:10:32.220Z,7632
2017-11-06T08:11:44.833Z,8028
2017-11-06T08:12:57.433Z,8240
2017-11-06T08:14:10.047Z,8780
2017-11-06T08:15:21.996Z,8940
2017-11-06T08:16:34.316Z,8904
2017-11-06T08:17:45.977Z,8076
2017-11-06T08:18:58.276Z,7276
2017-11-06T08:20:10.873Z,6260
2017-11-06T08:21:23.176Z,5456
2017-11-06T08:22:35.460Z,4860
2017-11-06T08:23:48.067Z,4444
2017-11-06T08:25:00.702Z,5124
2017-11-06T08:26:12.676Z,5624
2017-11-06T08:27:25.328Z,6560
2017-11-06T08:28:37.621Z,6512
2017-11-06T08:29:49.901Z,5804
2017-11-06T08:31:01.866Z,6516
2017-11-06T08:32:14.152Z,7000
2017-11-06T08:33:26.772Z,5596
2017-11-06T08:34:39.370Z,5212
2017-11-06T08:35:52.004Z,4948
2017-11-06T08:37:04.616Z,4892
2017-11-06T08:38:16.587Z,4924
2017-11-06T08:39:28.882Z,5480
2017-11-06T08:40:41.449Z,6208
2017-11-06T08:41:53.766Z,6844
2017-11-06T08:43:06.398Z,7684
2017-11-06T08:44:19.031Z,7964
2017-11-06T08:45:30.681Z,8352
2017-11-06T08:46:42.958Z,8360
2017-11-06T08:47:55.572Z,8660
2017-11-06T08:49:07.873Z,8500
2017-11-06T08:50:20.163Z,8668
2017-11-06T08:51:32.770Z,9464
2017-11-06T08:52:45.367Z,9284
2017-11-06T08:53:57.307Z,9484
2017-11-06T08:55:09.583Z,9440
2017-11-06T08:56:22.192Z,8912
2017-11-06T08:57:34.495Z,8848
2017-11-06T08:58:47.107Z,8628
2017-11-06T08:59:59.058Z,8488
2017-11-06T09:01:10.725Z,8288
2017-11-06T09:02:23.399Z,8252
2017-11-06T09:03:36.015Z,8564
2017-11-06T09:04:48.619Z,8216
2017-11-06T09:06:00.891Z,7572
2017-11-06T09:07:12.536Z,6628
2017-11-06T09:08:24.825Z,5756
2017-11-06T09:09:37.118Z,5100
2017-11-06T09:10:49.721Z,4572
2017-11-06T09:12:01.696Z,4340
2017-11-06T09:13:14.306Z,4392
2017-11-06T09:14:26.611Z,5088
2017-11-06T09:15:39.228Z,5000
2017-11-06T09:16:51.828Z,5388
2017-11-06T09:18:04.127Z,6084
2017-11-06T09:19:16.412Z,6856
2017-11-06T09:20:28.729Z,7708
2017-11-06T09:21:41.033Z,8384
2017-11-06T09:22:53.617Z,8884
2017-11-06T09:24:06.214Z,9136
2017-11-06T09:25:18.817Z,9280
2017-11-06T09:26:30.770Z,9256
2017-11-06T09:27:43.383Z,9272
2017-11-06T09:28:55.996Z,9336
2017-11-06T09:30:07.628Z,9488
2017-11-06T09:31:19.920Z,9660
2017-11-06T09:32:32.544Z,9720
2017-11-06T09:33:44.510Z,9632
2017-11-06T09:34:56.808Z,9528
2017-11-06T09:36:09.085Z,9532
2017-11-06T09:37:21.703Z,9672
2017-11-06T09:38:34.002Z,9960
2017-11-06T09:39:46.618Z,10256
2017-11-06T09:40:59.235Z,10412
2017-11-06T09:42:11.522Z,10348
2017-11-06T09:43:24.119Z,10096
2017-11-06T09:44:36.401Z,9776
2017-11-06T09:45:49.034Z,9536
2017-11-06T09:47:01.341Z,9340
2017-11-06T09:48:13.608Z,9184
2017-11-06T09:49:25.898Z,9012
2017-11-06T09:50:37.876Z,8812
2017-11-06T09:51:49.850Z,8612
2017-11-06T09:53:01.791Z,8420
2017-11-06T09:54:14.413Z,8000
2017-11-06T09:55:26.702Z,7496
2017-11-06T09:56:39.306Z,7092
2017-11-06T09:57:51.920Z,6828
2017-11-06T09:59:04.445Z,6784
2017-11-06T10:00:16.744Z,6832
2017-11-06T10:01:29.341Z,6648
2017-11-06T10:02:41.623Z,6340
2017-11-06T10:03:53.553Z,5920
2017-11-06T10:05:06.174Z,5508
2017-11-06T10:06:18.470Z,5032
2017-11-06T10:07:30.760Z,4604
2017-11-06T10:08:43.080Z,4300
2017-11-06T10:09:55.683Z,4080
2017-11-06T10:11:07.956Z,3936
2017-11-06T10:12:19.928Z,3856
2017-11-06T10:13:32.523Z,3816
2017-11-06T10:14:45.118Z,3852
2017-11-06T10:15:57.779Z,3908
2017-11-06T10:17:10.072Z,4160
2017-11-06T10:18:22.702Z,4196
2017-11-06T10:19:35.316Z,4576
2017-11-06T10:20:47.596Z,4500
2017-11-06T10:21:59.590Z,4456
2017-11-06T10:23:11.902Z,4444
2017-11-06T10:24:24.504Z,4436
2017-11-06T10:25:37.094Z,4460
2017-11-06T10:26:49.371Z,4432
2017-11-06T10:28:01.972Z,4420
2017-11-06T10:29:14.260Z,4416
2017-11-06T10:30:26.877Z,4388
2017-11-06T10:31:39.198Z,4416
2017-11-06T10:32:51.843Z,4412
2017-11-06T10:34:04.453Z,4488
2017-11-06T10:35:16.780Z,4520
2017-11-06T10:36:29.062Z,4528
2017-11-06T10:37:41.372Z,4552
2017-11-06T10:38:53.657Z,4576
2017-11-06T10:40:06.263Z,4592
2017-11-06T10:41:18.549Z,4604
2017-11-06T10:42:30.544Z,4684
2017-11-06T10:43:42.512Z,4616
2017-11-06T10:44:55.150Z,4588
2017-11-06T10:46:07.128Z,4512
2017-11-06T10:47:19.720Z,4512
2017-11-06T10:48:32.325Z,4468
2017-11-06T10:49:44.941Z,4452
2017-11-06T10:50:56.900Z,4424
2017-11-06T10:52:09.178Z,4408
2017-11-06T10:53:21.450Z,4380
2017-11-06T10:54:34.072Z,4340
2017-11-06T10:55:46.718Z,4312
2017-11-06T10:56:58.982Z,4244
2017-11-06T10:58:10.950Z,4208
2017-11-06T10:59:23.594Z,4188
2017-11-06T11:00:35.893Z,4192
2017-11-06T11:01:47.868Z,4196
2017-11-06T11:03:00.142Z,4236
2017-11-06T11:04:12.761Z,4276
2017-11-06T11:05:25.380Z,4268
2017-11-06T11:06:37.672Z,4260
2017-11-06T11:07:50.297Z,4296
2017-11-06T11:09:02.920Z,4324
2017-11-06T11:10:14.567Z,4332
2017-11-06T11:11:27.187Z,4328
2017-11-06T11:12:39.506Z,4272
2017-11-06T11:13:52.129Z,4284
2017-11-06T11:15:04.771Z,4240
2017-11-06T11:16:17.037Z,4048
2017-11-06T11:17:29.331Z,4064
2017-11-06T11:18:41.986Z,4084
2017-11-06T11:19:54.324Z,4096
2017-11-06T11:21:06.958Z,4104
2017-11-06T11:22:19.240Z,4128
2017-11-06T11:23:31.831Z,4024
2017-11-06T11:24:44.113Z,4032
2017-11-06T11:25:56.106Z,4068
2017-11-06T11:27:08.406Z,4032
2017-11-06T11:28:21.004Z,4084
2017-11-06T11:29:32.991Z,4180
2017-11-06T11:30:45.632Z,4360
2017-11-06T11:31:57.933Z,4536
2017-11-06T11:33:10.558Z,4632
2017-11-06T11:34:22.500Z,4672
2017-11-06T11:35:34.476Z,4720
2017-11-06T11:36:47.088Z,4716
2017-11-06T11:37:59.704Z,4704
2017-11-06T11:39:12.300Z,4596
2017-11-06T11:40:24.582Z,4628
2017-11-06T11:41:36.899Z,4632
2017-11-06T11:42:48.873Z,4588
2017-11-06T11:44:01.468Z,4672
2017-11-06T11:45:13.737Z,4592
2017-11-06T11:46:26.007Z,4528
2017-11-06T11:47:38.295Z,4476
2017-11-06T11:48:50.573Z,4424
2017-11-06T11:50:02.849Z,4408
2017-11-06T11:51:15.144Z,4352
2017-11-06T11:52:27.756Z,4352
2017-11-06T11:53:40.087Z,4336
2017-11-06T11:54:52.702Z,4348
2017-11-06T11:56:05.000Z,4312
2017-11-06T11:57:16.950Z,4312
2017-11-06T11:58:29.463Z,4244
2017-11-06T11:59:41.738Z,4116
2017-11-06T12:00:54.332Z,4116
2017-11-06T12:02:06.346Z,4128
2017-11-06T12:03:18.646Z,4112
2017-11-06T12:04:30.933Z,4084
2017-11-06T12:05:43.561Z,4128
2017-11-06T12:06:55.860Z,4140
2017-11-06T12:08:07.799Z,4160
2017-11-06T12:09:20.117Z,4164
2017-11-06T12:10:32.095Z,4088
2017-11-06T12:11:44.732Z,4100
2017-11-06T12:12:57.356Z,4084
2017-11-06T12:14:10.007Z,4100
2017-11-06T12:15:22.298Z,4120
2017-11-06T12:16:34.590Z,4104
2017-11-06T12:17:47.219Z,4124
2017-11-06T12:18:59.492Z,4136
2017-11-06T12:20:11.809Z,4176
2017-11-06T12:21:24.090Z,4164
2017-11-06T12:22:36.354Z,4100
2017-11-06T12:23:48.648Z,4052
2017-11-06T12:25:01.246Z,4048
2017-11-06T12:26:13.533Z,4056
2017-11-06T12:27:26.158Z,4044
2017-11-06T12:28:38.753Z,3988
2017-11-06T12:29:51.071Z,3916
2017-11-06T12:31:03.073Z,3872
2017-11-06T12:32:15.664Z,3880
2017-11-06T12:33:28.237Z,3864
2017-11-06T12:34:40.512Z,3872
2017-11-06T12:35:53.150Z,3876
2017-11-06T12:37:05.135Z,3852
2017-11-06T12:38:17.748Z,3832
2017-11-06T12:39:30.395Z,3872
2017-11-06T12:40:42.691Z,3864
2017-11-06T12:41:55.334Z,3856
2017-11-06T12:43:07.273Z,3820
2017-11-06T12:44:19.902Z,3772
2017-11-06T12:45:32.185Z,3732
2017-11-06T12:46:44.464Z,3744
2017-11-06T12:47:57.058Z,3728
2017-11-06T12:49:09.655Z,3716
2017-11-06T12:50:22.259Z,3668
2017-11-06T12:51:34.246Z,3636
2017-11-06T12:52:46.866Z,3576
2017-11-06T12:53:58.817Z,3588
2017-11-06T12:55:11.476Z,3548
2017-11-06T12:56:24.078Z,3616
2017-11-06T12:57:36.702Z,3596
2017-11-06T12:58:49.023Z,3480
2017-11-06T13:00:01.616Z,3464
2017-11-06T13:01:14.232Z,3532
2017-11-06T13:02:26.827Z,3536
2017-11-06T13:03:38.798Z,3560
2017-11-06T13:04:50.777Z,3612
2017-11-06T13:06:03.044Z,3608
2017-11-06T13:07:15.360Z,3584
2017-11-06T13:08:27.965Z,3596
2017-11-06T13:09:40.260Z,3564
2017-11-06T13:10:52.541Z,3564
2017-11-06T13:12:04.816Z,3556
2017-11-06T13:13:17.447Z,3528
2017-11-06T13:14:29.743Z,3484
2017-11-06T13:15:42.390Z,3464
2017-11-06T13:16:54.354Z,3492
2017-11-06T13:18:06.995Z,3440
2017-11-06T13:19:19.292Z,3424
2017-11-06T13:20:31.577Z,3388
2017-11-06T13:21:43.864Z,3376
2017-11-06T13:22:56.511Z,3344
2017-11-06T13:24:08.778Z,3352
2017-11-06T13:25:21.048Z,3348
2017-11-06T13:26:33.362Z,3332
2017-11-06T13:27:45.965Z,3308
2017-11-06T13:28:58.256Z,3264
2017-11-06T13:30:09.910Z,3244
2017-11-06T13:31:22.168Z,3232
2017-11-06T13:32:34.454Z,3228
2017-11-06T13:33:46.125Z,3204
2017-11-06T13:34:58.410Z,3200
2017-11-06T13:36:10.706Z,3192
2017-11-06T13:37:22.973Z,3144
2017-11-06T13:38:35.225Z,3140
2017-11-06T13:39:47.476Z,3080
2017-11-06T13:40:59.424Z,3060
2017-11-06T13:42:12.042Z,3092
2017-11-06T13:43:24.362Z,2992
2017-11-06T13:44:36.957Z,3012
2017-11-06T13:45:49.261Z,2972
2017-11-06T13:47:01.595Z,2840
2017-11-06T13:48:13.237Z,2584
2017-11-06T13:49:25.892Z,2416
2017-11-06T13:50:38.212Z,2340
2017-11-06T13:51:50.802Z,2308
2017-11-06T13:53:03.427Z,2264
2017-11-06T13:54:16.044Z,2372
2017-11-06T13:55:28.319Z,2540
2017-11-06T13:56:40.613Z,2608
2017-11-06T13:57:53.257Z,2664
2017-11-06T13:59:05.580Z,2680
2017-11-06T14:00:18.227Z,2688
2017-11-06T14:01:30.848Z,2704
2017-11-06T14:02:43.121Z,2716
2017-11-06T14:03:55.709Z,2756
2017-11-06T14:05:08.308Z,2820
2017-11-06T14:06:20.907Z,2880
2017-11-06T14:07:33.200Z,2956
2017-11-06T14:08:45.821Z,2972
2017-11-06T14:09:58.445Z,2932
2017-11-06T14:11:10.437Z,2920
2017-11-06T14:12:22.414Z,2900
2017-11-06T14:13:35.046Z,2844
2017-11-06T14:14:47.666Z,2796
2017-11-06T14:15:59.992Z,2748
2017-11-06T14:17:12.585Z,2700
2017-11-06T14:18:24.535Z,2632
2017-11-06T14:19:36.509Z,2548
2017-11-06T14:20:48.822Z,2496
2017-11-06T14:22:01.420Z,2452
2017-11-06T14:23:13.692Z,2536
2017-11-06T14:24:26.018Z,2504
2017-11-06T14:25:37.962Z,2360
2017-11-06T14:26:50.594Z,2276
2017-11-06T14:28:02.851Z,2240
2017-11-06T14:29:15.160Z,2204
2017-11-06T14:30:27.445Z,2168
2017-11-06T14:31:39.733Z,2132
2017-11-06T14:32:51.980Z,2088
2017-11-06T14:34:03.945Z,2056
2017-11-06T14:35:16.223Z,2024
2017-11-06T14:36:28.845Z,1992
2017-11-06T14:37:40.814Z,1960
2017-11-06T14:38:53.436Z,1924
2017-11-06T14:40:05.061Z,1888
2017-11-06T14:41:17.345Z,1852
2017-11-06T14:42:29.923Z,1800
2017-11-06T14:43:42.532Z,1772
2017-11-06T14:44:54.515Z,1740
2017-11-06T14:46:06.805Z,1684
2017-11-06T14:47:19.431Z,1652
2017-11-06T14:48:31.716Z,1612
2017-11-06T14:49:43.991Z,1576
2017-11-06T14:50:56.292Z,1532
2017-11-06T14:52:08.556Z,1492
2017-11-06T14:53:20.850Z,1448
2017-11-06T14:54:33.505Z,1408
2017-11-06T14:55:45.772Z,1364
2017-11-06T14:56:58.392Z,1320
2017-11-06T14:58:11.017Z,1272
2017-11-06T14:59:23.637Z,1232
2017-11-06T15:00:35.935Z,1188
2017-11-06T15:01:48.574Z,1144
2017-11-06T15:03:00.870Z,1096
2017-11-06T15:04:13.470Z,1048
2017-11-06T15:05:25.787Z,1004
2017-11-06T15:06:38.061Z,956
2017-11-06T15:07:50.670Z,916
2017-11-06T15:09:03.267Z,872
2017-11-06T15:10:15.871Z,824
2017-11-06T15:11:28.160Z,780
2017-11-06T15:12:40.788Z,736
2017-11-06T15:13:52.431Z,692
2017-11-06T15:15:04.706Z,644
2017-11-06T15:16:17.322Z,604
2017-11-06T15:17:29.622Z,564
2017-11-06T15:18:42.244Z,528
2017-11-06T15:19:54.527Z,484
2017-11-06T15:21:07.108Z,448
2017-11-06T15:22:19.756Z,412
2017-11-06T15:23:32.351Z,376
2017-11-06T15:24:44.667Z,340
2017-11-06T15:25:56.939Z,312
2017-11-06T15:27:09.586Z,284
2017-11-06T15:28:22.184Z,252
2017-11-06T15:29:34.453Z,228
2017-11-06T15:30:46.723Z,200
2017-11-06T15:31:58.370Z,180
2017-11-06T15:33:10.687Z,156
2017-11-06T15:34:23.305Z,140
2017-11-06T15:35:35.932Z,124
2017-11-06T15:36:48.552Z,108
2017-11-06T15:38:01.176Z,92
2017-11-06T15:39:13.832Z,80
2017-11-06T15:40:26.118Z,68
2017-11-06T15:41:38.712Z,56
2017-11-06T15:42:51.352Z,48
2017-11-06T15:44:03.973Z,40
2017-11-06T15:45:16.592Z,32
2017-11-06T15:46:29.193Z,28
2017-11-06T15:47:41.485Z,24
2017-11-06T15:48:54.108Z,20
2017-11-06T15:50:06.722Z,16
2017-11-06T15:51:19.025Z,12
2017-11-06T15:52:31.668Z,8
2017-11-06T15:53:43.959Z,8
2017-11-06T15:54:56.562Z,8
2017-11-06T15:56:08.871Z,4
2017-11-06T15:57:21.149Z,4
2017-11-06T15:58:33.441Z,4
2017-11-06T15:59:46.065Z,4
2017-11-06T16:00:58.329Z,4
2017-11-06T16:02:10.634Z,0
2017-11-06T16:03:23.256Z,0
2017-11-06T16:04:35.846Z,4
2017-11-06T16:05:48.475Z,4
2017-11-06T16:07:00.768Z,0
2017-11-06T16:08:13.067Z,0
2017-11-06T16:09:25.684Z,0
2017-11-06T16:10:37.955Z,0
2017-11-06T16:11:50.276Z,0
2017-11-06T16:13:02.568Z,0
2017-11-06T16:14:14.855Z,0
2017-11-06T16:15:27.472Z,0
2017-11-06T16:16:40.085Z,0
2017-11-06T16:17:52.692Z,0
2017-11-06T16:19:05.000Z,0
2017-11-06T16:20:16.964Z,0
2017-11-06T16:21:29.566Z,0
2017-11-06T16:22:41.861Z,0
2017-11-06T16:23:54.146Z,0
2017-11-06T16:25:06.400Z,0
2017-11-06T16:26:18.702Z,0
2017-11-06T16:27:30.983Z,0
2017-11-06T16:28:43.603Z,0
2017-11-06T16:29:55.914Z,0
2017-11-06T16:31:07.882Z,0
2017-11-06T16:32:20.497Z,0
2017-11-06T16:33:32.778Z,0
2017-11-06T16:34:45.058Z,0
2017-11-06T16:35:57.314Z,0
2017-11-06T16:37:09.603Z,0
2017-11-06T16:38:22.235Z,0
2017-11-06T16:39:33.905Z,0
2017-11-06T16:40:46.196Z,0
2017-11-06T16:41:58.817Z,0
2017-11-06T16:43:11.434Z,0
2017-11-06T16:44:23.708Z,0
2017-11-06T16:45:35.984Z,0
2017-11-06T16:46:48.571Z,0
2017-11-06T16:48:00.870Z,0